Time;durP1;ratioP1;P1;durP2;ratioP2;P2;SDS_P1;SDS_P2;PMS_P1;PMS_P2;Temp;Humidity;BMP_temperature;BMP_pressure;BME280_temperature;BME280_humidity;BME280_pressure;Samples;Min_cycle;Max_cycle;Signal;HPM_P1;HPM_P2
2023/05/28 00:00:10;;;;;;;16.20;6.00;;;11.30;99.90;;;;;;5095351;28;20450;-80
2023/05/28 00:02:36;;;;;;;11.02;5.40;;;11.20;99.90;;;;;;5099519;28;20044;-80
2023/05/28 00:05:02;;;;;;;15.85;6.07;;;11.20;99.90;;;;;;5098288;28;20050;-80
2023/05/28 00:07:28;;;;;;;16.75;5.95;;;11.50;99.90;;;;;;5088577;28;20066;-80
2023/05/28 00:09:55;;;;;;;13.15;5.38;;;11.10;99.90;;;;;;5077343;28;20036;-80
2023/05/28 00:12:21;;;;;;;14.45;5.90;;;11.10;99.90;;;;;;5075937;28;20040;-80
2023/05/28 00:14:47;;;;;;;13.18;6.32;;;11.10;99.90;;;;;;5100882;28;20046;-80
2023/05/28 00:17:14;;;;;;;19.08;6.57;;;10.90;99.90;;;;;;5099388;28;20050;-80
2023/05/28 00:19:40;;;;;;;14.25;6.00;;;11.00;99.90;;;;;;5087189;28;20036;-80
2023/05/28 00:22:05;;;;;;;13.38;6.22;;;11.00;99.90;;;;;;5092331;28;20087;-80
2023/05/28 00:24:31;;;;;;;14.30;5.93;;;10.90;99.90;;;;;;5096829;28;20071;-80
2023/05/28 00:26:57;;;;;;;13.98;6.28;;;10.90;99.90;;;;;;5089017;28;20120;-80
2023/05/28 00:29:24;;;;;;;21.48;6.63;;;10.80;99.90;;;;;;5092183;28;20063;-80
2023/05/28 00:31:51;;;;;;;17.30;5.90;;;10.80;99.90;;;;;;5091630;28;20443;-80
2023/05/28 00:34:16;;;;;;;13.07;5.85;;;10.80;99.90;;;;;;5090505;28;20048;-80
2023/05/28 00:36:42;;;;;;;14.73;5.38;;;10.70;99.90;;;;;;5084905;28;20035;-80
2023/05/28 00:39:07;;;;;;;15.02;6.18;;;10.70;99.90;;;;;;5094519;28;20109;-80
2023/05/28 00:41:36;;;;;;;11.88;5.35;;;10.70;99.90;;;;;;5092155;28;20142;-80
2023/05/28 00:44:02;;;;;;;13.15;6.13;;;10.60;99.90;;;;;;5091065;28;20155;-80
2023/05/28 00:46:29;;;;;;;15.90;5.90;;;10.60;99.90;;;;;;5083406;28;20048;-80
2023/05/28 00:48:54;;;;;;;14.02;5.80;;;10.60;99.90;;;;;;5094870;28;20040;-80
2023/05/28 00:51:20;;;;;;;14.13;5.75;;;10.50;99.90;;;;;;5079060;28;20071;-80
2023/05/28 00:53:46;;;;;;;15.35;5.35;;;10.60;99.90;;;;;;5083701;28;20861;-80
2023/05/28 00:56:13;;;;;;;15.10;5.28;;;10.50;99.90;;;;;;5068064;28;20036;-80
2023/05/28 00:58:42;;;;;;;15.55;5.57;;;10.50;99.90;;;;;;5087267;28;20083;-80
2023/05/28 01:01:09;;;;;;;14.45;7.10;;;10.50;99.90;;;;;;5092565;28;20105;-80
2023/05/28 01:03:38;;;;;;;12.57;5.53;;;10.50;99.90;;;;;;5098817;28;20469;-80
2023/05/28 01:06:11;;;;;;;12.07;5.57;;;10.50;99.90;;;;;;5089340;28;20075;-80
2023/05/28 01:08:37;;;;;;;14.32;5.90;;;10.50;99.90;;;;;;5096007;28;20056;-80
2023/05/28 01:11:04;;;;;;;11.55;6.03;;;10.50;99.90;;;;;;5093629;28;20491;-80
2023/05/28 01:13:31;;;;;;;13.48;6.15;;;10.50;99.90;;;;;;5092745;28;20128;-80
2023/05/28 01:15:58;;;;;;;13.88;5.82;;;10.50;99.90;;;;;;5099576;28;20510;-80
2023/05/28 01:18:24;;;;;;;11.40;5.53;;;10.50;99.90;;;;;;5105200;28;20043;-80
2023/05/28 01:20:50;;;;;;;14.50;5.95;;;10.50;99.90;;;;;;5108810;28;20062;-80
2023/05/28 01:23:22;;;;;;;16.67;6.28;;;10.50;99.90;;;;;;5097114;28;20044;-81
2023/05/28 01:25:52;;;;;;;;;;;10.50;99.90;;;;;;5068755;28;20490;-80
2023/05/28 01:28:17;;;;;;;14.48;6.03;;;10.50;99.90;;;;;;5074845;28;19928;-80
2023/05/28 01:30:43;;;;;;;14.52;6.60;;;10.50;99.90;;;;;;5092274;28;20044;-80
2023/05/28 01:33:11;;;;;;;14.45;6.40;;;10.50;99.90;;;;;;5098103;28;20040;-80
2023/05/28 01:35:37;;;;;;;12.90;5.55;;;10.50;99.90;;;;;;5090732;28;20039;-80
2023/05/28 01:38:03;;;;;;;15.80;6.20;;;10.50;99.90;;;;;;5087254;28;21397;-80
2023/05/28 01:40:31;;;;;;;13.10;5.82;;;10.50;99.90;;;;;;5076246;28;20047;-80
2023/05/28 01:42:57;;;;;;;14.35;5.57;;;10.60;99.90;;;;;;5095386;28;20475;-80
2023/05/28 01:45:24;;;;;;;12.45;6.35;;;10.60;99.90;;;;;;5096108;28;20036;-80
2023/05/28 01:47:50;;;;;;;17.52;6.97;;;10.60;99.90;;;;;;5083723;28;20081;-80
2023/05/28 01:50:17;;;;;;;17.35;5.60;;;10.50;99.90;;;;;;5097649;28;20038;-80
2023/05/28 01:52:44;;;;;;;18.52;6.53;;;10.50;99.90;;;;;;5090544;28;20043;-80
2023/05/28 01:55:11;;;;;;;18.08;5.75;;;10.50;99.90;;;;;;5088058;28;20494;-80
2023/05/28 01:57:38;;;;;;;14.63;5.88;;;10.50;99.90;;;;;;5087908;28;20783;-80
2023/05/28 02:00:06;;;;;;;15.45;5.93;;;10.90;99.90;;;;;;5096345;28;20040;-80
2023/05/28 02:02:31;;;;;;;14.07;5.82;;;10.50;99.90;;;;;;5094937;28;20036;-80
2023/05/28 02:04:57;;;;;;;16.23;6.57;;;10.50;99.90;;;;;;5096886;28;20097;-80
2023/05/28 02:07:23;;;;;;;14.90;6.00;;;10.50;99.90;;;;;;5088720;28;20619;-80
2023/05/28 02:09:48;;;;;;;16.67;5.43;;;10.50;99.90;;;;;;5096191;28;20086;-80
2023/05/28 02:12:15;;;;;;;10.05;5.20;;;10.60;99.90;;;;;;5080759;28;20961;-80
2023/05/28 02:14:41;;;;;;;15.68;6.40;;;10.60;99.90;;;;;;5095597;28;20039;-80
2023/05/28 02:17:09;;;;;;;15.30;5.95;;;10.50;99.90;;;;;;5067107;28;20051;-80
2023/05/28 02:19:35;;;;;;;12.55;5.60;;;10.60;99.90;;;;;;5095224;28;20564;-80
2023/05/28 02:22:00;;;;;;;16.95;6.03;;;10.60;99.90;;;;;;5069666;28;20052;-80
2023/05/28 02:24:26;;;;;;;10.65;5.82;;;11.20;99.90;;;;;;5088088;28;20483;-80
2023/05/28 02:26:51;;;;;;;15.15;6.40;;;10.60;99.90;;;;;;5095377;28;20139;-80
2023/05/28 02:29:17;;;;;;;26.90;6.80;;;10.60;99.90;;;;;;5086132;28;20058;-80
2023/05/28 02:31:43;;;;;;;11.40;5.85;;;10.60;99.90;;;;;;5090235;28;20705;-80
2023/05/28 02:34:08;;;;;;;16.90;6.05;;;10.60;99.90;;;;;;5095597;28;20085;-80
2023/05/28 02:36:35;;;;;;;15.88;6.18;;;10.60;99.90;;;;;;5094583;28;20414;-80
2023/05/28 02:39:02;;;;;;;17.63;6.30;;;10.60;99.90;;;;;;5099020;28;20735;-81
2023/05/28 02:41:27;;;;;;;14.15;6.20;;;10.60;99.90;;;;;;5076230;28;20059;-80
2023/05/28 02:43:53;;;;;;;12.70;5.45;;;10.60;99.90;;;;;;5098063;28;20055;-80
2023/05/28 02:46:19;;;;;;;13.30;5.75;;;10.70;99.90;;;;;;5079941;28;20060;-81
2023/05/28 02:48:45;;;;;;;14.52;5.93;;;10.70;99.90;;;;;;5100109;28;20047;-80
2023/05/28 02:51:11;;;;;;;12.55;5.15;;;10.70;99.90;;;;;;5092974;28;20118;-80
2023/05/28 02:53:36;;;;;;;20.23;6.03;;;10.70;99.90;;;;;;5097436;28;20075;-80
2023/05/28 02:56:02;;;;;;;12.95;6.28;;;10.70;99.90;;;;;;5086481;28;20118;-80
2023/05/28 02:58:30;;;;;;;14.93;6.15;;;10.70;99.90;;;;;;5099176;28;20105;-80
2023/05/28 03:00:56;;;;;;;12.38;5.93;;;10.70;99.90;;;;;;5096623;28;20508;-80
2023/05/28 03:03:21;;;;;;;13.50;5.90;;;10.70;99.90;;;;;;5090812;28;20467;-80
2023/05/28 03:05:48;;;;;;;14.07;5.80;;;10.60;99.90;;;;;;5087405;28;20040;-80
2023/05/28 03:08:14;;;;;;;11.20;5.88;;;10.70;99.90;;;;;;5103925;28;20043;-80
2023/05/28 03:10:39;;;;;;;16.20;5.95;;;10.70;99.90;;;;;;5085164;28;20093;-80
2023/05/28 03:13:05;;;;;;;16.77;6.20;;;10.70;99.90;;;;;;5078245;28;20504;-80
2023/05/28 03:15:31;;;;;;;16.00;6.10;;;10.70;99.90;;;;;;5092459;28;20097;-80
2023/05/28 03:17:57;;;;;;;17.45;6.65;;;10.60;99.90;;;;;;5073967;28;20123;-80
2023/05/28 03:20:23;;;;;;;16.58;6.03;;;10.60;99.90;;;;;;5088006;28;20044;-80
2023/05/28 03:22:49;;;;;;;18.17;6.70;;;10.70;99.90;;;;;;5086004;28;20164;-80
2023/05/28 03:25:14;;;;;;;12.25;5.55;;;10.70;99.90;;;;;;5088448;28;20043;-80
2023/05/28 03:27:40;;;;;;;13.55;5.75;;;10.60;99.90;;;;;;5097862;28;20032;-80
2023/05/28 03:30:09;;;;;;;14.60;6.07;;;10.70;99.90;;;;;;5099231;28;20509;-80
2023/05/28 03:32:35;;;;;;;16.70;7.70;;;10.60;99.90;;;;;;5089403;28;20082;-80
2023/05/28 03:35:00;;;;;;;14.20;5.90;;;10.60;99.90;;;;;;5093662;28;20074;-80
2023/05/28 03:37:26;;;;;;;13.85;5.38;;;10.60;99.90;;;;;;5096879;28;20040;-80
2023/05/28 03:39:53;;;;;;;11.77;5.45;;;10.60;99.90;;;;;;5097862;28;20135;-80
2023/05/28 03:42:19;;;;;;;18.52;6.32;;;10.60;99.90;;;;;;5090084;28;20089;-80
2023/05/28 03:44:44;;;;;;;18.20;6.78;;;10.60;99.90;;;;;;5087248;28;20064;-80
2023/05/28 03:47:10;;;;;;;16.60;6.35;;;10.60;99.90;;;;;;5088818;28;20044;-80
2023/05/28 03:49:35;;;;;;;14.25;5.75;;;10.60;99.90;;;;;;5084799;28;20097;-80
2023/05/28 03:52:01;;;;;;;12.07;5.55;;;10.60;99.90;;;;;;5075067;28;20043;-80
2023/05/28 03:54:26;;;;;;;16.15;6.72;;;10.70;99.90;;;;;;5088958;28;20048;-80
2023/05/28 03:56:52;;;;;;;18.92;6.40;;;10.70;99.90;;;;;;5091296;28;20135;-80
2023/05/28 03:59:18;;;;;;;14.35;6.00;;;10.70;99.90;;;;;;5094431;28;20032;-81
2023/05/28 04:01:43;;;;;;;14.43;6.50;;;10.70;99.90;;;;;;5084275;28;20449;-81
2023/05/28 04:04:09;;;;;;;15.13;6.43;;;10.70;99.90;;;;;;5077645;28;20056;-81
2023/05/28 04:06:34;;;;;;;14.13;5.80;;;10.70;99.90;;;;;;5087959;28;20159;-81
2023/05/28 04:09:00;;;;;;;17.77;6.47;;;10.70;99.90;;;;;;5078685;28;20040;-81
2023/05/28 04:11:28;;;;;;;15.95;5.97;;;10.70;99.90;;;;;;5082109;28;20814;-81
2023/05/28 04:13:54;;;;;;;16.15;6.68;;;10.70;99.90;;;;;;5066431;28;20410;-81
2023/05/28 04:16:22;;;;;;;14.32;6.70;;;10.70;99.90;;;;;;5085408;28;20040;-81
2023/05/28 04:18:48;;;;;;;12.80;5.15;;;10.80;99.90;;;;;;5084974;28;20098;-81
2023/05/28 04:21:14;;;;;;;15.60;6.22;;;10.80;99.90;;;;;;5090836;28;20158;-81
2023/05/28 04:23:40;;;;;;;15.10;6.53;;;10.80;99.90;;;;;;5090381;28;20582;-81
2023/05/28 04:26:06;;;;;;;13.65;5.82;;;10.80;99.90;;;;;;5093711;28;20051;-81
2023/05/28 04:28:33;;;;;;;16.38;6.07;;;10.80;99.90;;;;;;5084990;28;20113;-81
2023/05/28 04:31:01;;;;;;;15.15;6.03;;;10.80;99.90;;;;;;5088618;28;20139;-82
2023/05/28 04:33:30;;;;;;;12.30;5.50;;;11.30;99.90;;;;;;5105500;28;20049;-81
2023/05/28 04:35:59;;;;;;;12.50;5.50;;;10.90;99.90;;;;;;5085715;28;20052;-81
2023/05/28 04:38:28;;;;;;;14.82;6.65;;;10.90;99.90;;;;;;5094853;28;20051;-81
2023/05/28 04:40:55;;;;;;;13.70;6.07;;;10.90;99.90;;;;;;5098218;28;20039;-81
2023/05/28 04:43:21;;;;;;;13.13;6.15;;;10.90;99.90;;;;;;5102255;28;20051;-81
2023/05/28 04:45:47;;;;;;;13.93;6.32;;;11.00;99.90;;;;;;5094991;28;20414;-81
2023/05/28 04:48:13;;;;;;;14.20;6.20;;;11.10;99.90;;;;;;5091559;28;20528;-81
2023/05/28 04:50:40;;;;;;;14.50;6.15;;;11.10;99.90;;;;;;5096476;28;20075;-81
2023/05/28 04:53:05;;;;;;;15.25;6.28;;;11.20;99.90;;;;;;5109243;28;20062;-81
2023/05/28 04:55:31;;;;;;;15.57;5.97;;;11.20;99.90;;;;;;5095775;28;20048;-81
2023/05/28 04:57:57;;;;;;;16.48;6.18;;;11.20;99.90;;;;;;5099018;28;20175;-81
2023/05/28 05:00:24;;;;;;;18.38;6.28;;;11.30;99.90;;;;;;5090846;28;20040;-81
2023/05/28 05:02:50;;;;;;;19.02;6.90;;;11.30;99.90;;;;;;5084549;28;20131;-81
2023/05/28 05:05:16;;;;;;;13.07;5.78;;;11.30;99.90;;;;;;5094916;28;20448;-81
2023/05/28 05:07:42;;;;;;;16.15;6.55;;;11.40;99.90;;;;;;5096518;28;20130;-81
2023/05/28 05:10:09;;;;;;;13.63;6.00;;;11.40;99.90;;;;;;5094046;28;20055;-81
2023/05/28 05:12:35;;;;;;;13.75;6.30;;;11.50;99.90;;;;;;5088604;28;20044;-81
2023/05/28 05:15:02;;;;;;;12.50;5.88;;;11.70;99.90;;;;;;5091317;28;20085;-81
2023/05/28 05:17:27;;;;;;;15.13;6.22;;;11.80;99.90;;;;;;5091704;28;20131;-81
2023/05/28 05:19:53;;;;;;;10.85;5.63;;;11.90;99.90;;;;;;5083706;28;20119;-81
2023/05/28 05:22:19;;;;;;;12.00;5.88;;;12.00;99.90;;;;;;5091200;28;20167;-82
2023/05/28 05:24:51;;;;;;;17.40;5.63;;;12.20;99.90;;;;;;5080171;28;20044;-81
2023/05/28 05:27:16;;;;;;;13.95;5.60;;;12.30;99.90;;;;;;5089297;28;20407;-82
2023/05/28 05:29:42;;;;;;;13.63;5.53;;;12.50;99.90;;;;;;5090286;28;20048;-81
2023/05/28 05:32:10;;;;;;;13.70;6.45;;;12.90;99.90;;;;;;5100237;28;20047;-81
2023/05/28 05:34:36;;;;;;;10.55;5.63;;;13.40;99.90;;;;;;5100712;28;20043;-81
2023/05/28 05:37:02;;;;;;;11.05;5.38;;;14.00;99.90;;;;;;5098587;28;20054;-81
2023/05/28 05:39:28;;;;;;;13.73;5.97;;;14.80;99.90;;;;;;5074602;28;20047;-81
2023/05/28 05:41:54;;;;;;;14.50;6.00;;;15.50;99.90;;;;;;5080071;28;20043;-81
2023/05/28 05:44:20;;;;;;;13.43;5.25;;;15.90;99.90;;;;;;5082801;28;20048;-81
2023/05/28 05:46:45;;;;;;;12.63;5.60;;;16.30;99.90;;;;;;5078060;28;20101;-82
2023/05/28 05:49:11;;;;;;;15.35;5.40;;;17.30;99.90;;;;;;5090603;28;20044;-82
2023/05/28 05:51:36;;;;;;;13.18;5.13;;;18.10;99.90;;;;;;5090370;28;20560;-82
2023/05/28 05:54:03;;;;;;;12.77;4.72;;;18.80;99.90;;;;;;5083982;28;20106;-81
2023/05/28 05:56:29;;;;;;;11.55;5.25;;;18.80;99.90;;;;;;5107715;28;20057;-81
2023/05/28 05:58:54;;;;;;;12.07;4.70;;;18.60;99.90;;;;;;5099410;28;20035;-81
2023/05/28 06:01:21;;;;;;;12.02;4.55;;;18.50;99.90;;;;;;5086415;28;20040;-82
2023/05/28 06:03:46;;;;;;;11.20;4.68;;;18.40;99.90;;;;;;5094165;28;20615;-81
2023/05/28 06:06:13;;;;;;;11.40;5.15;;;18.60;99.90;;;;;;5083719;28;20048;-81
2023/05/28 06:08:39;;;;;;;9.85;4.55;;;18.40;99.90;;;;;;5090877;28;20509;-82
2023/05/28 06:11:05;;;;;;;7.10;4.93;;;18.20;99.90;;;;;;5093080;28;20040;-82
2023/05/28 06:13:31;;;;;;;12.60;5.05;;;18.20;99.90;;;;;;5104271;28;20043;-81
2023/05/28 06:15:57;;;;;;;9.00;4.75;;;17.90;99.90;;;;;;5072142;28;20039;-82
2023/05/28 06:18:23;;;;;;;11.85;4.30;;;17.70;99.90;;;;;;5087460;28;20048;-81
2023/05/28 06:20:49;;;;;;;9.95;4.72;;;17.40;99.90;;;;;;5069355;28;20055;-80
2023/05/28 06:23:15;;;;;;;11.02;4.70;;;17.40;99.90;;;;;;5108186;28;20043;-82
2023/05/28 06:25:43;;;;;;;12.55;5.43;;;17.10;99.90;;;;;;5089169;28;20097;-81
2023/05/28 06:28:09;;;;;;;8.23;4.47;;;17.20;99.90;;;;;;5097790;28;20055;-82
2023/05/28 06:30:35;;;;;;;11.68;5.22;;;16.80;99.90;;;;;;5105400;28;20064;-81
2023/05/28 06:33:01;;;;;;;10.80;5.40;;;16.60;99.90;;;;;;5097783;28;20073;-81
2023/05/28 06:35:27;;;;;;;10.50;4.93;;;16.40;99.90;;;;;;5077950;28;20040;-81
2023/05/28 06:37:52;;;;;;;9.68;4.53;;;16.20;99.90;;;;;;5090167;28;20043;-81
2023/05/28 06:40:18;;;;;;;8.00;4.25;;;16.10;99.90;;;;;;5099017;28;20078;-81
2023/05/28 06:42:44;;;;;;;10.98;4.75;;;16.00;99.90;;;;;;5087897;28;20044;-82
2023/05/28 06:45:10;;;;;;;9.85;4.05;;;16.10;99.90;;;;;;5095027;28;20059;-81
2023/05/28 06:47:36;;;;;;;10.98;4.90;;;16.20;99.90;;;;;;5092967;28;20166;-82
2023/05/28 06:50:02;;;;;;;10.88;4.32;;;16.20;99.90;;;;;;5082357;28;20527;-82
2023/05/28 06:52:28;;;;;;;11.52;4.93;;;16.30;99.90;;;;;;5095465;28;20523;-83
2023/05/28 06:54:53;;;;;;;10.30;4.07;;;16.40;99.90;;;;;;5098690;28;20067;-83
2023/05/28 06:57:20;;;;;;;10.88;4.72;;;16.50;99.90;;;;;;5091760;28;20036;-83
2023/05/28 06:59:46;;;;;;;11.10;4.65;;;16.90;99.90;;;;;;5094355;28;20052;-83
2023/05/28 07:02:11;;;;;;;7.50;3.95;;;16.80;99.90;;;;;;5076458;28;20092;-83
2023/05/28 07:04:37;;;;;;;7.97;4.13;;;16.90;99.90;;;;;;5097342;28;20097;-82
2023/05/28 07:07:03;;;;;;;11.15;4.32;;;17.00;99.90;;;;;;5094819;28;20059;-81
2023/05/28 07:09:32;;;;;;;8.57;4.78;;;17.20;99.90;;;;;;5103670;28;20087;-82
2023/05/28 07:11:58;;;;;;;7.95;4.53;;;17.80;99.90;;;;;;5099005;28;20475;-82
2023/05/28 07:14:23;;;;;;;11.02;4.70;;;17.20;99.90;;;;;;5099116;28;20043;-81
2023/05/28 07:16:49;;;;;;;11.85;4.72;;;17.90;99.90;;;;;;5092767;28;20560;-81
2023/05/28 07:19:15;;;;;;;8.40;4.68;;;17.30;99.90;;;;;;5102564;28;20055;-80
2023/05/28 07:21:40;;;;;;;10.20;4.60;;;17.30;99.90;;;;;;5097641;28;20039;-81
2023/05/28 07:24:06;;;;;;;12.52;4.78;;;17.30;99.90;;;;;;5088812;28;20193;-81
2023/05/28 07:26:35;;;;;;;10.05;4.95;;;17.40;99.90;;;;;;5090209;28;20044;-81
2023/05/28 07:29:00;;;;;;;10.20;4.88;;;17.50;99.90;;;;;;5096724;28;20056;-81
2023/05/28 07:31:28;;;;;;;9.77;4.70;;;17.60;99.90;;;;;;5102716;28;20430;-80
2023/05/28 07:33:54;;;;;;;9.23;4.28;;;17.70;99.90;;;;;;5098153;28;20140;-81
2023/05/28 07:36:20;;;;;;;14.18;5.07;;;17.80;99.90;;;;;;5091636;28;20048;-81
2023/05/28 07:38:46;;;;;;;9.60;4.85;;;17.90;99.80;;;;;;5098762;28;20484;-81
2023/05/28 07:41:12;;;;;;;8.48;4.63;;;18.00;99.00;;;;;;5111010;28;20035;-80
2023/05/28 07:43:37;;;;;;;9.35;4.75;;;18.20;98.50;;;;;;5112030;28;20494;-81
2023/05/28 07:46:03;;;;;;;8.00;4.85;;;18.20;98.40;;;;;;5094330;28;20040;-80
2023/05/28 07:48:28;;;;;;;8.93;4.63;;;18.30;98.20;;;;;;5102427;28;20032;-81
2023/05/28 07:50:54;;;;;;;10.57;5.13;;;18.30;97.40;;;;;;5107497;28;20044;-80
2023/05/28 07:53:19;;;;;;;11.50;4.72;;;18.40;96.70;;;;;;5097858;28;20127;-81
2023/05/28 07:55:45;;;;;;;9.05;4.43;;;18.50;96.10;;;;;;5097095;28;20578;-80
2023/05/28 07:58:12;;;;;;;8.20;5.22;;;18.60;95.20;;;;;;5084379;28;20035;-80
2023/05/28 08:00:41;;;;;;;10.90;4.60;;;18.70;94.40;;;;;;5100191;28;20082;-80
2023/05/28 08:03:07;;;;;;;6.53;4.53;;;19.00;93.70;;;;;;5106511;28;20460;-80
2023/05/28 08:05:32;;;;;;;7.38;4.63;;;19.00;92.60;;;;;;5098424;28;20048;-81
2023/05/28 08:07:59;;;;;;;8.65;5.35;;;19.00;92.40;;;;;;5109524;28;20526;-81
2023/05/28 08:10:25;;;;;;;7.30;4.28;;;19.10;91.80;;;;;;5098330;28;20491;-83
2023/05/28 08:12:50;;;;;;;10.02;4.70;;;19.20;91.10;;;;;;5098091;28;20055;-81
2023/05/28 08:15:16;;;;;;;8.63;4.80;;;19.30;90.80;;;;;;5094121;28;20051;-83
2023/05/28 08:17:42;;;;;;;9.73;5.15;;;19.10;89.00;;;;;;5102441;28;20042;-83
2023/05/28 08:20:09;;;;;;;11.48;5.22;;;19.10;88.30;;;;;;5098900;28;20047;-80
2023/05/28 08:22:35;;;;;;;9.15;5.72;;;19.00;86.40;;;;;;5097168;28;20523;-81
2023/05/28 08:25:01;;;;;;;11.30;5.57;;;19.00;84.50;;;;;;5098467;28;20044;-82
2023/05/28 08:27:26;;;;;;;8.68;5.07;;;19.00;83.30;;;;;;5101724;28;20072;-82
2023/05/28 08:29:52;;;;;;;9.93;5.15;;;19.10;81.90;;;;;;5102490;28;20043;-81
2023/05/28 08:32:17;;;;;;;9.68;5.07;;;19.30;81.10;;;;;;5097744;28;20128;-82
2023/05/28 08:34:43;;;;;;;9.63;5.03;;;19.40;79.80;;;;;;5095979;28;20410;-81
2023/05/28 08:37:09;;;;;;;9.77;5.28;;;19.60;78.60;;;;;;5092564;28;20121;-81
2023/05/28 08:39:35;;;;;;;11.13;5.65;;;19.70;77.60;;;;;;5095741;28;20032;-81
2023/05/28 08:42:01;;;;;;;7.13;4.80;;;19.70;75.30;;;;;;5087702;28;20106;-81
2023/05/28 08:44:27;;;;;;;8.82;5.13;;;19.70;74.30;;;;;;5102090;27;20043;-82
2023/05/28 08:46:54;;;;;;;10.43;5.63;;;19.80;72.50;;;;;;5101330;28;20060;-81
2023/05/28 08:49:25;;;;;;;7.57;4.95;;;19.90;71.60;;;;;;5108312;28;20078;-83
2023/05/28 08:51:53;;;;;;;7.63;4.63;;;19.90;70.90;;;;;;5102797;28;20048;-81
2023/05/28 08:54:20;;;;;;;7.38;4.88;;;19.90;70.70;;;;;;5099516;28;20048;-83
2023/05/28 08:56:45;;;;;;;7.45;4.68;;;20.00;70.60;;;;;;5102424;28;20047;-82
2023/05/28 08:59:12;;;;;;;7.88;4.63;;;20.20;69.60;;;;;;5090400;28;20173;-82
2023/05/28 09:01:39;;;;;;;10.02;4.90;;;20.30;69.10;;;;;;5107766;28;20114;-81
2023/05/28 09:04:04;;;;;;;9.68;5.47;;;20.30;68.90;;;;;;5085244;28;20051;-81
2023/05/28 09:06:31;;;;;;;8.20;4.90;;;20.40;68.80;;;;;;5111595;28;20080;-82
2023/05/28 09:08:57;;;;;;;8.98;4.80;;;20.30;67.90;;;;;;5100145;28;20096;-82
2023/05/28 09:11:23;;;;;;;8.50;4.70;;;20.40;68.00;;;;;;5098925;28;20047;-82
2023/05/28 09:13:49;;;;;;;9.48;5.30;;;20.60;68.30;;;;;;5101614;28;20044;-82
2023/05/28 09:16:23;;;;;;;9.00;4.47;;;20.50;67.50;;;;;;5107406;28;20044;-82
2023/05/28 09:18:50;;;;;;;8.77;4.57;;;20.70;67.70;;;;;;5089233;28;20072;-82
2023/05/28 09:21:16;;;;;;;7.15;4.65;;;20.70;67.60;;;;;;5096819;28;20043;-82
2023/05/28 09:23:45;;;;;;;8.02;4.38;;;20.80;67.10;;;;;;5104202;28;20051;-82
2023/05/28 09:26:11;;;;;;;8.98;4.60;;;20.80;66.60;;;;;;5104155;28;20058;-82
2023/05/28 09:28:42;;;;;;;7.93;4.57;;;20.80;66.20;;;;;;5091956;28;20040;-83
2023/05/28 09:31:08;;;;;;;10.03;4.87;;;21.20;66.00;;;;;;5100770;28;20054;-82
2023/05/28 09:33:35;;;;;;;10.13;4.47;;;20.90;65.90;;;;;;5098010;28;20043;-82
2023/05/28 09:36:02;;;;;;;7.22;4.28;;;20.90;65.80;;;;;;5100188;28;20048;-82
2023/05/28 09:38:41;;;;;;;8.00;4.28;;;20.80;64.90;;;;;;5099863;28;20450;-82
2023/05/28 09:41:27;;;;;;;6.95;4.40;;;20.80;63.50;;;;;;5084667;28;20411;-81
2023/05/28 09:44:10;;;;;;;8.02;4.65;;;20.90;64.30;;;;;;5085627;28;20053;-83
2023/05/28 09:46:36;;;;;;;7.20;4.65;;;21.10;63.20;;;;;;5087552;28;20494;-83
2023/05/28 09:49:03;;;;;;;6.97;4.40;;;21.00;64.40;;;;;;5090373;28;20040;-83
2023/05/28 09:51:31;;;;;;;7.15;4.25;;;21.10;64.00;;;;;;5083066;28;20071;-83
2023/05/28 09:54:02;;;;;;;8.43;4.57;;;21.20;63.90;;;;;;5095605;28;20506;-81
2023/05/28 09:56:30;;;;;;;7.88;4.32;;;21.20;63.30;;;;;;5094406;28;20048;-81
2023/05/28 09:59:00;;;;;;;8.00;4.53;;;21.20;62.40;;;;;;5093056;28;20050;-82
2023/05/28 10:01:31;;;;;;;8.25;4.47;;;21.70;62.20;;;;;;5099700;28;20040;-81
2023/05/28 10:04:13;;;;;;;6.78;4.47;;;21.20;61.30;;;;;;5105310;28;20517;-82
2023/05/28 10:06:42;;;;;;;7.30;4.60;;;21.30;60.10;;;;;;5086840;28;20048;-83
2023/05/28 10:09:14;;;;;;;8.13;4.30;;;21.40;60.80;;;;;;5093180;28;20094;-82
2023/05/28 10:11:44;;;;;;;6.85;4.32;;;21.60;60.50;;;;;;5088128;28;20054;-82
2023/05/28 10:14:10;;;;;;;6.75;4.40;;;21.80;59.70;;;;;;5083818;28;20040;-83
2023/05/28 10:16:37;;;;;;;6.90;4.40;;;21.90;59.00;;;;;;5099317;28;20043;-82
2023/05/28 10:19:03;;;;;;;6.63;4.53;;;22.30;58.60;;;;;;5090121;28;20039;-82
2023/05/28 10:21:29;;;;;;;8.50;4.65;;;21.80;57.60;;;;;;5099979;28;20040;-82
2023/05/28 10:23:56;;;;;;;8.20;4.55;;;21.80;57.30;;;;;;5096464;28;20499;-82
2023/05/28 10:26:22;;;;;;;9.18;4.93;;;21.90;57.10;;;;;;5096701;28;20122;-82
2023/05/28 10:28:55;;;;;;;8.25;4.82;;;22.10;56.60;;;;;;5087985;28;20047;-82
2023/05/28 10:31:22;;;;;;;6.85;4.78;;;21.90;56.10;;;;;;5095964;28;20055;-82
2023/05/28 10:33:48;;;;;;;6.97;4.45;;;22.00;56.30;;;;;;5088803;28;20433;-82
2023/05/28 10:36:15;;;;;;;8.57;5.22;;;22.00;56.20;;;;;;5107020;28;20093;-82
2023/05/28 10:38:44;;;;;;;7.78;4.50;;;22.00;55.60;;;;;;5091325;28;20040;-85
2023/05/28 10:41:10;;;;;;;8.30;5.10;;;22.10;55.30;;;;;;5083639;28;20055;-85
2023/05/28 10:43:39;;;;;;;5.93;3.97;;;21.90;54.70;;;;;;5106567;28;20043;-85
2023/05/28 10:46:09;;;;;;;6.93;4.57;;;22.10;54.20;;;;;;5078862;28;20047;-84
2023/05/28 10:49:01;;;;;;;7.00;4.47;;;22.20;54.40;;;;;;5083046;28;20045;-84
2023/05/28 10:51:43;;;;;;;7.10;4.55;;;22.10;53.30;;;;;;5079559;28;20039;-85
2023/05/28 10:55:08;;;;;;;8.43;4.97;;;22.20;53.20;;;;;;5070428;28;20051;-84
2023/05/28 10:57:45;;;;;;;7.28;4.90;;;22.10;53.80;;;;;;5094111;28;20074;-84
2023/05/28 11:00:15;;;;;;;6.30;4.45;;;22.20;53.20;;;;;;5094899;28;20047;-83
2023/05/28 11:02:47;;;;;;;9.10;4.43;;;22.40;54.20;;;;;;5090933;28;20039;-83
2023/05/28 11:05:12;;;;;;;6.93;4.40;;;22.50;53.50;;;;;;5098028;28;20152;-84
2023/05/28 11:07:40;;;;;;;9.15;4.30;;;22.50;53.40;;;;;;5099894;28;20484;-84
2023/05/28 11:10:10;;;;;;;7.20;4.22;;;22.50;53.20;;;;;;5096587;28;20113;-85
2023/05/28 11:12:38;;;;;;;8.13;4.20;;;22.60;53.10;;;;;;5098381;28;20605;-83
2023/05/28 11:15:05;;;;;;;5.57;4.30;;;22.50;52.60;;;;;;5090503;28;20094;-85
2023/05/28 11:17:39;;;;;;;6.57;4.47;;;22.70;52.90;;;;;;5090741;28;20032;-85
2023/05/28 11:20:05;;;;;;;6.38;4.18;;;22.70;52.50;;;;;;5086227;28;20040;-84
2023/05/28 11:22:38;;;;;;;6.13;4.05;;;22.80;52.40;;;;;;5097599;28;20052;-85
2023/05/28 11:25:06;;;;;;;7.78;4.15;;;22.80;51.80;;;;;;5092759;28;20056;-83
2023/05/28 11:27:34;;;;;;;6.82;4.45;;;22.90;52.10;;;;;;5094195;28;20101;-84
2023/05/28 11:30:01;;;;;;;5.65;4.20;;;22.80;51.30;;;;;;5094535;28;20055;-85
2023/05/28 11:32:28;;;;;;;5.32;3.78;;;22.80;50.70;;;;;;5096932;28;20054;-85
2023/05/28 11:34:55;;;;;;;6.13;3.67;;;22.80;50.20;;;;;;5076956;28;20036;-84
2023/05/28 11:37:25;;;;;;;6.35;3.97;;;23.00;50.10;;;;;;5103965;28;20050;-85
2023/05/28 11:39:53;;;;;;;5.45;4.22;;;22.80;49.30;;;;;;5090058;28;20040;-84
2023/05/28 11:42:19;;;;;;;5.60;4.40;;;22.80;49.60;;;;;;5095318;28;20083;-84
2023/05/28 11:44:46;;;;;;;5.47;3.90;;;22.80;49.10;;;;;;5073346;28;20043;-83
2023/05/28 11:47:12;;;;;;;6.10;4.35;;;22.80;48.90;;;;;;5087645;28;20058;-83
2023/05/28 11:49:38;;;;;;;5.18;4.10;;;22.80;48.30;;;;;;5084653;28;20169;-83
2023/05/28 11:52:03;;;;;;;5.78;4.03;;;22.70;47.90;;;;;;5099227;28;20082;-84
2023/05/28 11:54:32;;;;;;;3.92;3.40;;;22.60;47.80;;;;;;5089485;28;20039;-84
2023/05/28 11:56:57;;;;;;;5.00;3.95;;;22.70;47.50;;;;;;5090434;28;20055;-87
2023/05/28 11:59:26;;;;;;;6.57;4.22;;;22.70;47.60;;;;;;5094465;28;20059;-84
2023/05/28 12:01:52;;;;;;;4.93;3.75;;;22.60;46.70;;;;;;5094938;28;20403;-83
2023/05/28 12:04:25;;;;;;;6.28;4.13;;;22.60;46.70;;;;;;5086626;28;20516;-83
2023/05/28 12:06:55;;;;;;;4.63;3.70;;;22.50;46.10;;;;;;5092195;28;20115;-83
2023/05/28 12:09:21;;;;;;;5.97;4.18;;;22.80;46.30;;;;;;5101917;28;20050;-84
2023/05/28 12:12:09;;;;;;;4.38;3.70;;;22.80;45.80;;;;;;5093809;28;20436;-83
2023/05/28 12:14:35;;;;;;;4.75;3.70;;;23.00;45.30;;;;;;5097310;28;20565;-83
2023/05/28 12:17:08;;;;;;;6.80;4.10;;;23.00;46.10;;;;;;5097656;28;20127;-83
2023/05/28 12:19:35;;;;;;;7.65;4.30;;;23.10;45.90;;;;;;5083348;28;20039;-83
2023/05/28 12:22:02;;;;;;;5.75;4.38;;;23.50;45.80;;;;;;5105985;28;20570;-84
2023/05/28 12:24:28;;;;;;;6.40;4.20;;;23.10;45.50;;;;;;5097208;28;20044;-84
2023/05/28 12:26:54;;;;;;;6.30;4.47;;;23.00;45.70;;;;;;5099949;28;20518;-84
2023/05/28 12:29:20;;;;;;;8.77;4.50;;;23.00;46.10;;;;;;5094214;28;20052;-84
2023/05/28 12:31:45;;;;;;;6.93;4.22;;;23.10;46.30;;;;;;5084184;28;20082;-83
2023/05/28 12:34:11;;;;;;;7.13;4.10;;;23.10;46.10;;;;;;5088487;28;20044;-84
2023/05/28 12:36:37;;;;;;;6.38;3.97;;;23.10;46.00;;;;;;5087734;28;20129;-84
2023/05/28 12:39:04;;;;;;;5.22;3.83;;;23.10;45.70;;;;;;5085543;28;20092;-84